createdAt,value
2023-01-23T00:00:41.265Z,25.77
2023-01-23T00:03:08.813Z,26.33
2023-01-23T00:05:35.933Z,29.93
2023-01-23T00:08:03.061Z,27.77
2023-01-23T00:10:30.202Z,27.47
2023-01-23T00:12:57.736Z,28.17
2023-01-23T00:15:24.854Z,29.10
2023-01-23T00:17:52.254Z,29.20
2023-01-23T00:20:20.575Z,28.23
2023-01-23T00:22:47.867Z,29.20
2023-01-23T00:25:14.978Z,27.67
2023-01-23T00:27:42.197Z,30.67
2023-01-23T00:30:09.646Z,28.73
2023-01-23T00:32:36.803Z,30.13
2023-01-23T00:35:04.068Z,29.47
2023-01-23T00:37:31.191Z,26.77
2023-01-23T00:39:58.305Z,25.03
2023-01-23T00:42:25.478Z,26.03
2023-01-23T00:44:52.649Z,30.23
2023-01-23T00:47:19.778Z,28.40
2023-01-23T00:49:46.927Z,27.67
2023-01-23T00:52:14.056Z,28.57
2023-01-23T00:54:41.557Z,28.00
2023-01-23T00:57:08.743Z,28.70
2023-01-23T00:59:35.873Z,27.87
2023-01-23T01:02:03.261Z,27.67
2023-01-23T01:04:30.455Z,33.50
2023-01-23T01:06:57.582Z,29.70
2023-01-23T01:09:24.956Z,28.73
2023-01-23T01:11:53.188Z,29.10
2023-01-23T01:14:20.379Z,26.90
2023-01-23T01:16:47.606Z,32.10
2023-01-23T01:19:15.323Z,30.13
2023-01-23T01:21:42.554Z,31.27
2023-01-23T01:24:10.250Z,30.27
2023-01-23T01:26:37.450Z,31.80
2023-01-23T01:29:04.706Z,29.17
2023-01-23T01:31:31.960Z,27.87
2023-01-23T01:33:59.138Z,29.87
2023-01-23T01:36:27.099Z,29.60
2023-01-23T01:38:54.286Z,26.50
2023-01-23T01:41:21.488Z,31.97
2023-01-23T01:43:48.627Z,25.70
2023-01-23T01:46:22.132Z,30.17
2023-01-23T01:49:08.086Z,26.03
2023-01-23T01:52:07.672Z,28.00
2023-01-23T01:54:37.929Z,28.87
2023-01-23T01:57:05.039Z,30.93
2023-01-23T01:59:34.184Z,29.57
2023-01-23T02:02:05.308Z,27.03
2023-01-23T02:04:37.437Z,27.87
2023-01-23T02:07:08.119Z,28.63
2023-01-23T02:09:35.327Z,28.77
2023-01-23T02:12:02.816Z,25.23
2023-01-23T02:14:30.046Z,27.20
2023-01-23T02:17:01.104Z,25.17
2023-01-23T02:19:28.257Z,28.47
2023-01-23T02:22:02.269Z,23.77
2023-01-23T02:24:37.057Z,26.20
2023-01-23T02:27:04.221Z,26.03
2023-01-23T02:29:44.963Z,26.60
2023-01-23T02:32:12.407Z,23.83
2023-01-23T02:34:39.642Z,25.30
2023-01-23T02:37:07.284Z,23.43
2023-01-23T02:39:34.537Z,21.37
2023-01-23T02:42:02.329Z,25.57
2023-01-23T02:44:33.972Z,22.00
2023-01-23T02:47:11.893Z,21.20
2023-01-23T02:49:40.358Z,25.70
2023-01-23T02:52:07.782Z,22.43
2023-01-23T02:54:34.925Z,22.90
2023-01-23T02:57:02.137Z,21.37
2023-01-23T02:59:47.909Z,19.03
2023-01-23T03:02:15.785Z,18.27
2023-01-23T03:04:42.942Z,20.20
2023-01-23T03:07:10.122Z,19.30
2023-01-23T03:09:37.432Z,18.37
2023-01-23T03:12:04.599Z,18.63
2023-01-23T03:14:32.425Z,19.50
2023-01-23T03:16:59.627Z,20.87
2023-01-23T03:19:27.125Z,19.80
2023-01-23T03:21:54.863Z,19.40
2023-01-23T03:24:22.095Z,18.80
2023-01-23T03:26:49.788Z,18.97
2023-01-23T03:29:40.326Z,19.27
2023-01-23T03:32:08.445Z,20.00
2023-01-23T03:34:35.940Z,17.10
2023-01-23T03:37:03.503Z,18.27
2023-01-23T03:39:49.633Z,18.60
2023-01-23T03:42:17.043Z,18.67
2023-01-23T03:44:44.233Z,19.30
2023-01-23T03:47:11.423Z,16.27
2023-01-23T03:49:38.623Z,17.77
2023-01-23T03:52:05.883Z,16.57
2023-01-23T03:54:33.066Z,15.70
2023-01-23T03:57:00.204Z,17.77
2023-01-23T03:59:27.338Z,16.40
2023-01-23T04:01:54.537Z,16.07
2023-01-23T04:04:21.750Z,17.03
2023-01-23T04:06:48.880Z,17.83
2023-01-23T04:09:16.029Z,17.57
2023-01-23T04:11:43.155Z,17.60
2023-01-23T04:14:10.347Z,18.53
2023-01-23T04:16:37.546Z,17.97
2023-01-23T04:19:04.764Z,18.20
2023-01-23T04:21:31.911Z,16.13
2023-01-23T04:23:59.050Z,16.60
2023-01-23T04:26:26.247Z,18.40
2023-01-23T04:28:53.374Z,16.60
2023-01-23T04:31:20.606Z,17.83
2023-01-23T04:33:47.819Z,16.27
2023-01-23T04:36:15.143Z,16.93
2023-01-23T04:38:42.289Z,15.67
2023-01-23T04:41:11.176Z,16.43
2023-01-23T04:43:38.377Z,18.30
2023-01-23T04:46:05.635Z,15.77
2023-01-23T04:48:32.782Z,17.13
2023-01-23T04:50:59.935Z,17.93
2023-01-23T04:53:27.150Z,18.03
2023-01-23T04:55:54.396Z,19.27
2023-01-23T04:58:21.571Z,19.30
2023-01-23T05:00:48.740Z,16.63
2023-01-23T05:03:16.275Z,16.70
2023-01-23T05:05:44.323Z,19.33
2023-01-23T05:08:12.455Z,17.73
2023-01-23T05:10:39.964Z,18.27
2023-01-23T05:13:07.157Z,17.37
2023-01-23T05:15:34.347Z,17.63
2023-01-23T05:18:01.494Z,17.07
2023-01-23T05:20:28.703Z,17.97
2023-01-23T05:22:57.641Z,16.70
2023-01-23T05:25:27.466Z,16.70
2023-01-23T05:27:54.664Z,16.33
2023-01-23T05:30:22.642Z,18.60
2023-01-23T05:32:49.945Z,19.00
2023-01-23T05:35:17.502Z,16.33
2023-01-23T05:37:44.715Z,17.13
2023-01-23T05:40:12.278Z,18.60
2023-01-23T05:42:39.394Z,20.47
2023-01-23T05:45:06.867Z,20.53
2023-01-23T05:47:34.121Z,19.10
2023-01-23T05:50:01.326Z,18.50
2023-01-23T05:52:28.565Z,19.10
2023-01-23T05:54:55.839Z,19.53
2023-01-23T05:57:23.089Z,18.03
2023-01-23T05:59:50.239Z,18.70
2023-01-23T06:02:17.764Z,20.33
2023-01-23T06:04:47.182Z,18.67
2023-01-23T06:07:14.941Z,20.13
2023-01-23T06:09:42.147Z,18.37
2023-01-23T06:12:09.805Z,22.47
2023-01-23T06:14:37.045Z,20.00
2023-01-23T06:17:04.500Z,20.70
2023-01-23T06:19:31.762Z,21.10
2023-01-23T06:21:58.920Z,22.67
2023-01-23T06:24:26.097Z,22.20
2023-01-23T06:26:53.306Z,20.03
2023-01-23T06:29:20.479Z,22.33
2023-01-23T06:31:47.771Z,20.00
2023-01-23T06:34:15.650Z,22.63
2023-01-23T06:36:43.065Z,19.53
2023-01-23T06:39:13.263Z,20.60
2023-01-23T06:41:40.401Z,19.37
2023-01-23T06:44:07.839Z,18.70
2023-01-23T06:46:35.219Z,22.27
2023-01-23T06:49:05.834Z,21.87
2023-01-23T06:51:33.729Z,22.93
2023-01-23T06:54:00.885Z,20.63
2023-01-23T06:56:28.398Z,23.67
2023-01-23T06:58:55.612Z,23.03
2023-01-23T07:01:22.862Z,21.07
2023-01-23T07:03:50.083Z,21.57
2023-01-23T07:06:17.271Z,21.80
2023-01-23T07:08:44.559Z,25.03
2023-01-23T07:11:12.013Z,25.23
2023-01-23T07:13:39.176Z,22.00
2023-01-23T07:16:06.539Z,23.03
2023-01-23T07:18:33.735Z,22.73
2023-01-23T07:21:01.057Z,23.10
2023-01-23T07:23:28.331Z,23.47
2023-01-23T07:26:09.434Z,23.37
2023-01-23T07:28:37.378Z,23.47
2023-01-23T07:31:05.166Z,26.00
2023-01-23T07:33:32.778Z,21.17
2023-01-23T07:36:00.117Z,22.17
2023-01-23T07:38:28.046Z,21.67
2023-01-23T07:40:58.573Z,23.70
2023-01-23T07:43:25.863Z,22.27
2023-01-23T07:45:53.031Z,20.90
2023-01-23T07:48:20.243Z,22.47
2023-01-23T07:50:47.357Z,22.97
2023-01-23T07:53:14.501Z,25.50
2023-01-23T07:55:41.633Z,20.77
2023-01-23T07:58:08.835Z,22.17
2023-01-23T08:00:36.038Z,22.37
2023-01-23T08:03:03.220Z,24.03
2023-01-23T08:05:30.400Z,22.60
2023-01-23T08:08:12.102Z,23.77
2023-01-23T08:10:40.632Z,21.60
2023-01-23T08:13:07.787Z,22.67
2023-01-23T08:15:34.898Z,24.67
2023-01-23T08:18:02.059Z,22.47
2023-01-23T08:20:29.340Z,22.53
2023-01-23T08:22:57.464Z,24.20
2023-01-23T08:25:24.588Z,23.40
2023-01-23T08:27:51.707Z,22.50
2023-01-23T08:30:19.206Z,23.90
2023-01-23T08:32:47.119Z,21.77
2023-01-23T08:35:14.352Z,22.77
2023-01-23T08:37:42.314Z,21.80
2023-01-23T08:40:09.664Z,20.83
2023-01-23T08:42:36.888Z,27.57
2023-01-23T08:45:04.689Z,23.73
2023-01-23T08:47:36.686Z,20.63
2023-01-23T08:50:04.600Z,26.17
2023-01-23T08:52:32.100Z,22.17
2023-01-23T08:54:59.250Z,18.20
2023-01-23T08:57:26.598Z,21.80
2023-01-23T08:59:53.745Z,20.63
2023-01-23T09:02:22.166Z,17.47
2023-01-23T09:04:50.004Z,20.43
2023-01-23T09:07:17.156Z,18.43
2023-01-23T09:09:44.277Z,19.80
2023-01-23T09:12:11.408Z,22.87
2023-01-23T09:14:38.617Z,20.80
2023-01-23T09:17:06.136Z,17.90
2023-01-23T09:19:33.430Z,18.57
2023-01-23T09:22:00.635Z,20.93
2023-01-23T09:24:27.801Z,21.23
2023-01-23T09:26:54.991Z,16.33
2023-01-23T09:29:22.118Z,17.90
2023-01-23T09:31:49.385Z,21.40
2023-01-23T09:34:17.385Z,19.47
2023-01-23T09:36:44.659Z,19.60
2023-01-23T09:39:12.363Z,20.43
2023-01-23T09:41:40.480Z,21.70
2023-01-23T09:44:10.789Z,20.23
2023-01-23T09:46:37.906Z,20.33
2023-01-23T09:49:05.015Z,21.17
2023-01-23T09:51:32.124Z,20.00
2023-01-23T09:54:02.378Z,20.87
2023-01-23T09:56:31.630Z,20.60
2023-01-23T09:59:04.367Z,17.73
2023-01-23T10:01:31.967Z,20.10
2023-01-23T10:04:00.630Z,18.53
2023-01-23T10:06:31.716Z,19.20
2023-01-23T10:09:07.946Z,17.43
2023-01-23T10:11:37.870Z,21.00
2023-01-23T10:14:17.493Z,16.33
2023-01-23T10:16:51.361Z,16.10
2023-01-23T10:19:27.611Z,16.97
2023-01-23T10:21:54.793Z,16.80
2023-01-23T10:24:40.913Z,17.27
2023-01-23T10:27:19.257Z,16.63
2023-01-23T10:29:50.576Z,21.17
2023-01-23T10:32:29.559Z,17.10
2023-01-23T10:35:16.934Z,16.40
2023-01-23T10:37:48.421Z,16.60
2023-01-23T10:40:17.627Z,18.40
2023-01-23T10:42:44.772Z,17.13
2023-01-23T10:45:16.638Z,16.70
2023-01-23T10:47:54.701Z,16.63
2023-01-23T10:50:34.716Z,16.63
2023-01-23T10:53:09.139Z,16.63
2023-01-23T10:55:36.278Z,17.20
2023-01-23T10:58:03.473Z,14.87
2023-01-23T11:00:38.819Z,17.97
2023-01-23T11:03:29.092Z,21.03
2023-01-23T11:05:57.470Z,19.37
2023-01-23T11:08:26.250Z,18.60
2023-01-23T11:10:53.700Z,18.47
2023-01-23T11:13:30.514Z,19.87
2023-01-23T11:15:58.157Z,19.60
2023-01-23T11:18:36.017Z,18.27
2023-01-23T11:21:03.347Z,18.07
2023-01-23T11:23:30.675Z,18.97
2023-01-23T11:25:58.156Z,20.43
2023-01-23T11:28:27.368Z,18.13
2023-01-23T11:31:11.596Z,19.60
2023-01-23T11:33:39.840Z,15.83
2023-01-23T11:36:19.512Z,16.00
2023-01-23T11:38:58.109Z,19.40
2023-01-23T11:41:35.614Z,18.13
2023-01-23T11:44:08.047Z,18.03
2023-01-23T11:46:47.420Z,20.27
2023-01-23T11:49:14.526Z,20.33
2023-01-23T11:51:50.386Z,17.07
2023-01-23T11:54:17.609Z,21.07
2023-01-23T11:56:44.790Z,22.70
2023-01-23T11:59:30.340Z,26.30
2023-01-23T12:02:16.316Z,18.53
2023-01-23T12:05:08.536Z,17.20
2023-01-23T12:07:56.015Z,19.03
2023-01-23T12:10:49.086Z,22.90
2023-01-23T12:13:24.870Z,21.17
2023-01-23T12:16:01.096Z,19.47
2023-01-23T12:18:46.811Z,19.67
2023-01-23T12:21:17.029Z,17.13
2023-01-23T12:23:58.298Z,16.03
2023-01-23T12:26:27.789Z,25.00
2023-01-23T12:28:57.947Z,31.93
2023-01-23T12:31:41.026Z,18.20
2023-01-23T12:34:28.419Z,17.60
2023-01-23T12:37:08.711Z,16.70
2023-01-23T12:39:58.243Z,16.27
2023-01-23T12:42:41.663Z,15.43
2023-01-23T12:45:11.852Z,18.47
2023-01-23T12:47:45.335Z,16.70
2023-01-23T12:50:17.669Z,18.17
2023-01-23T12:52:50.635Z,14.77
2023-01-23T12:55:17.766Z,20.47
2023-01-23T12:58:00.203Z,16.73
2023-01-23T13:00:53.434Z,16.03
2023-01-23T13:03:31.314Z,13.57
2023-01-23T13:06:09.400Z,16.73
2023-01-23T13:09:05.351Z,15.27
2023-01-23T13:11:52.609Z,16.53
2023-01-23T13:14:31.470Z,15.70
2023-01-23T13:17:04.831Z,14.67
2023-01-23T13:19:52.220Z,15.20
2023-01-23T13:22:27.728Z,15.30
2023-01-23T13:25:17.670Z,16.53
2023-01-23T13:28:01.933Z,15.97
2023-01-23T13:30:32.916Z,17.53
2023-01-23T13:33:01.704Z,16.13
2023-01-23T13:35:44.755Z,17.37
2023-01-23T13:38:30.353Z,17.30
2023-01-23T13:41:12.022Z,17.87
2023-01-23T13:43:44.291Z,17.20
2023-01-23T13:46:30.084Z,15.10
2023-01-23T14:21:41.513Z,12.73
2023-01-23T14:24:25.118Z,13.80
2023-01-23T14:26:53.705Z,11.93
2023-01-23T14:29:24.982Z,11.77
2023-01-23T14:31:52.803Z,11.23
2023-01-23T14:34:21.443Z,11.37
2023-01-23T14:37:09.081Z,11.83
2023-01-23T14:39:37.027Z,11.63
2023-01-23T14:42:06.532Z,10.93
2023-01-23T14:44:42.840Z,10.17
2023-01-23T14:47:23.765Z,11.93
2023-01-23T14:49:51.017Z,11.17
2023-01-23T14:52:26.063Z,11.37
2023-01-23T14:54:54.835Z,10.43
2023-01-23T14:57:24.572Z,11.10
2023-01-23T14:59:53.893Z,10.23
2023-01-23T15:02:36.587Z,9.60
2023-01-23T15:05:07.933Z,12.70
2023-01-23T15:07:35.579Z,12.20
2023-01-23T15:10:03.099Z,12.13
2023-01-23T15:12:30.234Z,11.63
2023-01-23T15:14:57.493Z,13.20
2023-01-23T15:17:24.694Z,13.20
2023-01-23T15:19:56.585Z,11.53
2023-01-23T15:22:28.355Z,14.33
2023-01-23T15:24:55.994Z,13.63
2023-01-23T15:27:24.839Z,14.30
2023-01-23T15:29:52.439Z,13.47
2023-01-23T15:32:24.415Z,16.13
2023-01-23T15:34:55.721Z,14.80
2023-01-23T15:37:24.420Z,14.53
2023-01-23T15:39:53.876Z,15.23
2023-01-23T15:42:21.078Z,15.10
2023-01-23T15:44:48.246Z,14.47
2023-01-23T15:47:15.367Z,14.30
2023-01-23T15:49:42.521Z,15.83
2023-01-23T15:52:20.410Z,12.73
2023-01-23T15:54:47.739Z,15.13
2023-01-23T15:57:15.229Z,16.23
2023-01-23T15:59:42.376Z,13.83
2023-01-23T16:02:29.115Z,15.17
2023-01-23T16:04:57.546Z,14.33
2023-01-23T16:07:25.675Z,14.87
2023-01-23T16:09:55.029Z,15.77
2023-01-23T16:12:23.390Z,15.70
2023-01-23T16:14:50.536Z,17.00
2023-01-23T16:17:17.665Z,16.53
2023-01-23T16:19:44.936Z,17.47
2023-01-23T16:22:17.704Z,15.57
2023-01-23T16:24:44.894Z,16.60
2023-01-23T16:27:16.942Z,17.37
2023-01-23T16:29:44.419Z,16.50
2023-01-23T16:32:11.723Z,16.37
2023-01-23T16:34:39.007Z,19.83
2023-01-23T16:37:06.536Z,17.37
2023-01-23T16:39:34.183Z,18.70
2023-01-23T16:42:01.520Z,20.20
2023-01-23T16:44:29.065Z,21.23
2023-01-23T16:46:56.260Z,20.53
2023-01-23T16:49:23.496Z,20.20
2023-01-23T16:52:01.049Z,19.43
2023-01-23T16:54:28.376Z,17.63
2023-01-23T16:56:56.992Z,19.00
2023-01-23T16:59:34.144Z,17.33
2023-01-23T17:02:02.159Z,18.27
2023-01-23T17:04:29.364Z,17.57
2023-01-23T17:06:56.512Z,19.23
2023-01-23T17:09:23.676Z,19.07
2023-01-23T17:11:56.210Z,20.80
2023-01-23T17:14:25.537Z,21.23
2023-01-23T17:16:52.999Z,19.93
2023-01-23T17:19:27.532Z,22.53
2023-01-23T17:21:54.793Z,19.37
2023-01-23T17:24:21.934Z,18.07
2023-01-23T17:26:49.076Z,17.47
2023-01-23T17:29:16.335Z,20.43
2023-01-23T17:31:43.939Z,19.67
2023-01-23T17:34:18.148Z,16.10
2023-01-23T17:36:45.474Z,17.23
2023-01-23T17:39:12.669Z,19.20
2023-01-23T17:41:39.799Z,21.83
2023-01-23T17:44:07.005Z,20.57
2023-01-23T17:46:39.530Z,19.67
2023-01-23T17:49:36.067Z,19.17
2023-01-23T17:52:03.285Z,22.17
2023-01-23T17:54:30.503Z,21.73
2023-01-23T17:56:57.686Z,21.33
2023-01-23T17:59:24.859Z,20.27
2023-01-23T18:01:52.163Z,21.63
2023-01-23T18:04:20.306Z,21.23
2023-01-23T18:06:47.960Z,20.40
2023-01-23T18:09:15.636Z,21.43
2023-01-23T18:11:52.559Z,19.13
2023-01-23T18:14:19.778Z,21.33
2023-01-23T18:16:48.145Z,18.27
2023-01-23T18:19:15.404Z,18.80
2023-01-23T18:21:42.730Z,20.37
2023-01-23T18:24:30.383Z,18.20
2023-01-23T18:26:58.865Z,19.87
2023-01-23T18:29:31.841Z,20.07
2023-01-23T18:31:58.940Z,18.20
2023-01-23T18:34:29.105Z,17.90
2023-01-23T18:36:56.231Z,16.83
2023-01-23T18:39:32.980Z,16.63
2023-01-23T18:42:03.155Z,16.87
2023-01-23T18:44:33.843Z,17.37
2023-01-23T18:47:05.583Z,16.83
2023-01-23T18:49:33.592Z,17.37
2023-01-23T18:52:05.275Z,15.93
2023-01-23T18:54:58.735Z,16.67
2023-01-23T18:57:37.955Z,19.67
2023-01-23T19:00:14.868Z,18.27
2023-01-23T19:02:47.016Z,17.20
2023-01-23T19:05:14.160Z,18.37
2023-01-23T19:07:41.337Z,17.87
2023-01-23T19:10:13.651Z,18.97
2023-01-23T19:12:45.982Z,20.50
2023-01-23T19:15:22.713Z,20.90
2023-01-23T19:17:50.075Z,23.67
2023-01-23T19:20:22.995Z,19.50
2023-01-23T19:22:55.508Z,21.40
2023-01-23T19:25:23.143Z,21.60
2023-01-23T19:27:52.922Z,20.63
2023-01-23T19:30:22.353Z,20.43
2023-01-23T19:32:50.347Z,20.50
2023-01-23T19:35:17.793Z,15.03
2023-01-23T19:37:45.324Z,22.03
2023-01-23T19:40:13.981Z,19.77
2023-01-23T19:42:52.414Z,19.57
2023-01-23T19:45:23.664Z,20.23
2023-01-23T19:47:53.262Z,21.17
2023-01-23T19:50:20.990Z,22.73
2023-01-23T19:52:49.133Z,22.07
2023-01-23T19:55:25.290Z,16.20
2023-01-23T19:57:52.938Z,22.37
2023-01-23T20:00:20.907Z,23.30
2023-01-23T20:02:48.376Z,20.77
2023-01-23T20:05:15.714Z,19.43
2023-01-23T20:07:43.047Z,23.87
2023-01-23T20:10:10.956Z,19.97
2023-01-23T20:12:41.997Z,19.43
2023-01-23T20:15:09.884Z,22.33
2023-01-23T20:17:37.193Z,20.97
2023-01-23T20:20:05.678Z,20.13
2023-01-23T20:22:32.916Z,19.43
2023-01-23T20:25:00.033Z,20.47
2023-01-23T20:27:27.202Z,18.60
2023-01-23T20:29:54.357Z,20.53
2023-01-23T20:32:21.538Z,18.93
2023-01-23T20:34:48.662Z,20.60
2023-01-23T20:37:15.885Z,19.93
2023-01-23T20:39:43.068Z,18.97
2023-01-23T20:42:11.279Z,17.37
2023-01-23T20:44:38.609Z,20.10
2023-01-23T20:47:05.794Z,21.83
2023-01-23T20:49:32.991Z,20.40
2023-01-23T20:52:20.099Z,20.73
2023-01-23T20:54:47.475Z,19.27
2023-01-23T20:57:14.802Z,20.37
2023-01-23T20:59:41.909Z,17.90
2023-01-23T21:02:23.389Z,21.70
2023-01-23T21:04:51.371Z,22.40
2023-01-23T21:07:18.599Z,21.40
2023-01-23T21:09:46.055Z,19.87
2023-01-23T21:12:13.380Z,20.40
2023-01-23T21:14:40.552Z,19.93
2023-01-23T21:17:08.982Z,20.83
2023-01-23T21:19:37.602Z,18.10
2023-01-23T21:22:06.075Z,18.97
2023-01-23T21:24:34.552Z,19.30
2023-01-23T21:27:05.432Z,21.70
2023-01-23T21:29:33.385Z,19.37
2023-01-23T21:32:00.721Z,18.60
2023-01-23T21:34:27.911Z,22.10
2023-01-23T21:36:55.191Z,21.90
2023-01-23T21:39:22.515Z,20.47
2023-01-23T21:41:49.642Z,20.10
2023-01-23T21:44:17.123Z,20.43
2023-01-23T21:46:46.578Z,20.80
2023-01-23T21:49:13.756Z,20.70
2023-01-23T21:51:40.961Z,21.73
2023-01-23T21:54:08.107Z,22.27
2023-01-23T21:56:35.268Z,20.57
2023-01-23T21:59:02.499Z,20.97
2023-01-23T22:01:33.304Z,20.93
2023-01-23T22:04:09.190Z,21.00
2023-01-23T22:06:37.138Z,18.67
2023-01-23T22:09:04.960Z,19.20
2023-01-23T22:11:32.301Z,22.43
2023-01-23T22:13:59.753Z,18.50
2023-01-23T22:16:46.532Z,19.10
2023-01-23T22:19:24.578Z,19.30
2023-01-23T22:21:52.563Z,18.33
2023-01-23T22:24:19.832Z,21.30
2023-01-23T22:26:47.042Z,19.67
2023-01-23T22:29:15.040Z,19.27
2023-01-23T22:31:42.661Z,19.60
2023-01-23T22:34:09.907Z,18.53
2023-01-23T22:36:37.145Z,19.87
2023-01-23T22:39:04.541Z,21.33
2023-01-23T22:41:31.770Z,19.40
2023-01-23T22:44:01.940Z,22.13
2023-01-23T22:46:29.419Z,19.50
2023-01-23T22:48:56.610Z,20.20
2023-01-23T22:51:25.518Z,20.00
2023-01-23T22:53:53.541Z,19.43
2023-01-23T22:56:21.207Z,19.83
2023-01-23T22:58:48.863Z,19.23
2023-01-23T23:01:16.972Z,19.83
2023-01-23T23:03:44.230Z,19.57
2023-01-23T23:06:12.166Z,18.57
2023-01-23T23:08:39.342Z,21.30
2023-01-23T23:11:07.926Z,19.10
2023-01-23T23:13:35.865Z,20.17
2023-01-23T23:16:04.171Z,21.40
2023-01-23T23:18:31.296Z,20.43
2023-01-23T23:21:17.960Z,22.93
2023-01-23T23:23:45.133Z,20.43
2023-01-23T23:26:12.793Z,21.67
2023-01-23T23:28:40.528Z,22.23
2023-01-23T23:31:08.378Z,21.90
2023-01-23T23:33:36.148Z,15.83
2023-01-23T23:36:03.332Z,20.37
2023-01-23T23:38:30.492Z,13.07
2023-01-23T23:40:59.185Z,15.60
2023-01-23T23:43:26.386Z,17.17
2023-01-23T23:45:54.315Z,17.13
2023-01-23T23:48:22.027Z,18.10
2023-01-23T23:50:49.339Z,18.90
2023-01-23T23:53:16.810Z,21.10
2023-01-23T23:55:43.953Z,18.60
2023-01-23T23:58:11.160Z,17.80
